RYR248P EDNY-LEPA
Flight info
| Callsign | RYR248P |
|---|---|
| Flight time | N/A |
| Altitude | 37000 |
| Route | TRA1E TRA DCT LUTIX DCT BENOT DCT NEMOS DCT GEVEA DCT INCUS DCT BALSI DCT RETNO DCT TUPOX DCT MTG DCT DIVKO DCT VATIR N852 PIVUS DCT BODEQ N852 VERSO DCT LUNIK |
| Aircraft | A320/M-SDE3FGHIRWY/LB1 |
Departure
| Time | 2026-04-20 21:07 |
|---|---|
| Airport | Bodensee Airport Friedrichshafen (EDNY) |
Arrival
| Time | N/A |
|---|---|
| Airport | Palma de Mallorca Airport (LEPA) |
| Time | Latitude | Longitude | Altitude | Speed | Heading |
|---|---|---|---|---|---|
| 2026-04-20 20:20 | 47.67336 | 9.52306 | 1374 ft | 0 kts | 174° |
| 2026-04-20 20:54 | 47.67355 | 9.52304 | 1376 ft | 4 kts | 175° |
| 2026-04-20 20:54 | 47.67381 | 9.52302 | 1376 ft | 4 kts | 188° |
| 2026-04-20 20:54 | 47.67404 | 9.52318 | 1376 ft | 0 kts | 240° |
| 2026-04-20 20:58 | 47.67397 | 9.52300 | 1373 ft | 6 kts | 239° |
| 2026-04-20 20:58 | 47.67362 | 9.52213 | 1375 ft | 13 kts | 239° |
| 2026-04-20 20:58 | 47.67313 | 9.52087 | 1374 ft | 15 kts | 240° |
| 2026-04-20 20:59 | 47.67255 | 9.51939 | 1373 ft | 18 kts | 240° |
| 2026-04-20 20:59 | 47.67189 | 9.51769 | 1373 ft | 20 kts | 240° |
| 2026-04-20 20:59 | 47.67116 | 9.51579 | 1372 ft | 22 kts | 240° |
| 2026-04-20 20:59 | 47.67036 | 9.51371 | 1374 ft | 25 kts | 240° |
| 2026-04-20 21:00 | 47.66950 | 9.51151 | 1376 ft | 23 kts | 240° |
| 2026-04-20 21:00 | 47.66879 | 9.50967 | 1376 ft | 15 kts | 240° |
| 2026-04-20 21:00 | 47.66826 | 9.50832 | 1376 ft | 12 kts | 239° |
| 2026-04-20 21:00 | 47.66761 | 9.50746 | 1375 ft | 14 kts | 210° |
| 2026-04-20 21:01 | 47.66677 | 9.50663 | 1375 ft | 14 kts | 228° |
| 2026-04-20 21:01 | 47.66620 | 9.50528 | 1376 ft | 17 kts | 239° |
| 2026-04-20 21:01 | 47.66559 | 9.50369 | 1376 ft | 19 kts | 240° |
| 2026-04-20 21:01 | 47.66492 | 9.50195 | 1376 ft | 14 kts | 240° |
| 2026-04-20 21:02 | 47.66472 | 9.50063 | 1374 ft | 15 kts | 284° |
| 2026-04-20 21:02 | 47.66526 | 9.49923 | 1376 ft | 14 kts | 302° |
| 2026-04-20 21:02 | 47.66536 | 9.49901 | 1376 ft | 0 kts | 302° |
| 2026-04-20 21:04 | 47.66537 | 9.49897 | 1376 ft | 1 kts | 302° |
| 2026-04-20 21:05 | 47.66545 | 9.49878 | 1374 ft | 3 kts | 303° |
| 2026-04-20 21:05 | 47.66562 | 9.49847 | 1375 ft | 5 kts | 313° |
| 2026-04-20 21:05 | 47.66595 | 9.49822 | 1375 ft | 6 kts | 349° |
| 2026-04-20 21:05 | 47.66633 | 9.49858 | 1377 ft | 8 kts | 61° |
| 2026-04-20 21:06 | 47.66659 | 9.49933 | 1375 ft | 2 kts | 60° |
| 2026-04-20 21:06 | 47.66720 | 9.50089 | 1377 ft | 53 kts | 60° |
| 2026-04-20 21:06 | 47.67016 | 9.50848 | 1373 ft | 117 kts | 60° |
| 2026-04-20 21:07 | 47.67508 | 9.52110 | 1455 ft | 158 kts | 59° |
| 2026-04-20 21:07 | 47.68058 | 9.53548 | 2044 ft | 162 kts | 59° |
| 2026-04-20 21:07 | 47.68615 | 9.54990 | 2776 ft | 159 kts | 59° |
| 2026-04-20 21:07 | 47.69165 | 9.56406 | 3403 ft | 157 kts | 59° |
| 2026-04-20 21:08 | 47.69705 | 9.57800 | 3974 ft | 155 kts | 59° |
| 2026-04-20 21:08 | 47.70306 | 9.59112 | 4494 ft | 153 kts | 39° |
| 2026-04-20 21:08 | 47.71264 | 9.59841 | 4861 ft | 165 kts | 9° |
| 2026-04-20 21:08 | 47.72446 | 9.59696 | 5085 ft | 186 kts | 337° |
| 2026-04-20 21:09 | 47.73499 | 9.58421 | 5359 ft | 209 kts | 308° |
| 2026-04-20 21:09 | 47.74412 | 9.56688 | 6007 ft | 216 kts | 309° |
| 2026-04-20 21:09 | 47.75348 | 9.54930 | 6767 ft | 218 kts | 309° |
| 2026-04-20 21:09 | 47.76300 | 9.53157 | 7531 ft | 221 kts | 309° |
| 2026-04-20 21:10 | 47.77267 | 9.51361 | 8304 ft | 223 kts | 309° |
| 2026-04-20 21:10 | 47.78184 | 9.49428 | 8810 ft | 241 kts | 293° |
| 2026-04-20 21:10 | 47.78467 | 9.46895 | 9141 ft | 262 kts | 266° |
| 2026-04-20 21:10 | 47.78255 | 9.44133 | 9648 ft | 278 kts | 264° |
| 2026-04-20 21:11 | 47.78005 | 9.41259 | 10353 ft | 285 kts | 263° |
| 2026-04-20 21:11 | 47.77737 | 9.38223 | 10611 ft | 309 kts | 263° |
| 2026-04-20 21:11 | 47.77444 | 9.35003 | 10957 ft | 318 kts | 263° |
| 2026-04-20 21:11 | 47.77137 | 9.31716 | 11532 ft | 325 kts | 263° |
| 2026-04-20 21:12 | 47.76826 | 9.28387 | 12279 ft | 325 kts | 264° |
| 2026-04-20 21:12 | 47.76520 | 9.25057 | 13012 ft | 326 kts | 263° |
| 2026-04-20 21:12 | 47.76214 | 9.21705 | 13721 ft | 330 kts | 264° |
| 2026-04-20 21:12 | 47.75908 | 9.18322 | 14481 ft | 330 kts | 264° |
| 2026-04-20 21:13 | 47.75607 | 9.14978 | 15146 ft | 333 kts | 264° |
| 2026-04-20 21:13 | 47.75299 | 9.11573 | 15825 ft | 334 kts | 264° |
| 2026-04-20 21:13 | 47.74988 | 9.08142 | 16476 ft | 336 kts | 264° |
| 2026-04-20 21:13 | 47.74673 | 9.04698 | 17124 ft | 337 kts | 264° |
| 2026-04-20 21:14 | 47.74357 | 9.01238 | 17790 ft | 339 kts | 264° |
| 2026-04-20 21:14 | 47.74040 | 8.97763 | 18445 ft | 340 kts | 264° |
| 2026-04-20 21:14 | 47.73718 | 8.94276 | 19104 ft | 341 kts | 265° |
| 2026-04-20 21:14 | 47.73395 | 8.90775 | 19741 ft | 343 kts | 265° |
| 2026-04-20 21:15 | 47.73073 | 8.87256 | 20399 ft | 344 kts | 265° |
| 2026-04-20 21:15 | 47.72752 | 8.83770 | 21026 ft | 346 kts | 265° |
| 2026-04-20 21:15 | 47.72422 | 8.80227 | 21624 ft | 347 kts | 265° |
| 2026-04-20 21:15 | 47.72090 | 8.76674 | 22189 ft | 349 kts | 265° |
| 2026-04-20 21:16 | 47.71753 | 8.73099 | 22738 ft | 350 kts | 265° |
| 2026-04-20 21:16 | 47.71412 | 8.69518 | 23281 ft | 351 kts | 266° |
| 2026-04-20 21:16 | 47.71071 | 8.65916 | 23785 ft | 353 kts | 266° |
| 2026-04-20 21:16 | 47.70731 | 8.62298 | 24289 ft | 355 kts | 266° |
| 2026-04-20 21:17 | 47.70387 | 8.58663 | 24776 ft | 356 kts | 266° |
| 2026-04-20 21:17 | 47.70041 | 8.55020 | 25231 ft | 358 kts | 266° |
| 2026-04-20 21:17 | 47.69696 | 8.51401 | 25623 ft | 361 kts | 266° |
| 2026-04-20 21:17 | 47.69335 | 8.47703 | 26031 ft | 364 kts | 264° |
| 2026-04-20 21:18 | 47.68643 | 8.44049 | 26419 ft | 373 kts | 254° |
| 2026-04-20 21:18 | 47.67443 | 8.40584 | 26780 ft | 384 kts | 244° |
| 2026-04-20 21:18 | 47.65881 | 8.37328 | 27159 ft | 389 kts | 242° |
| 2026-04-20 21:18 | 47.64292 | 8.34061 | 27527 ft | 391 kts | 242° |
| 2026-04-20 21:19 | 47.62698 | 8.30777 | 27891 ft | 393 kts | 242° |
| 2026-04-20 21:19 | 47.61098 | 8.27475 | 28243 ft | 396 kts | 242° |
| 2026-04-20 21:19 | 47.59508 | 8.24193 | 28591 ft | 398 kts | 242° |
| 2026-04-20 21:20 | 47.56256 | 8.17496 | 29273 ft | 403 kts | 242° |
| 2026-04-20 21:20 | 47.54610 | 8.14121 | 29594 ft | 405 kts | 242° |
| 2026-04-20 21:20 | 47.52955 | 8.10732 | 29924 ft | 407 kts | 242° |
| 2026-04-20 21:20 | 47.51293 | 8.07330 | 30245 ft | 410 kts | 242° |
| 2026-04-20 21:21 | 47.49619 | 8.03911 | 30599 ft | 410 kts | 242° |
| 2026-04-20 21:21 | 47.47944 | 8.00502 | 31030 ft | 409 kts | 241° |
| 2026-04-20 21:21 | 47.46296 | 7.97148 | 31425 ft | 409 kts | 241° |
| 2026-04-20 21:21 | 47.44630 | 7.93751 | 31821 ft | 408 kts | 241° |
| 2026-04-20 21:22 | 47.42964 | 7.90353 | 32227 ft | 408 kts | 241° |
| 2026-04-20 21:22 | 47.41299 | 7.86962 | 32637 ft | 407 kts | 240° |
| 2026-04-20 21:22 | 47.39635 | 7.83585 | 33059 ft | 406 kts | 240° |
| 2026-04-20 21:22 | 47.37973 | 7.80217 | 33489 ft | 405 kts | 240° |
| 2026-04-20 21:23 | 47.36315 | 7.76867 | 33901 ft | 404 kts | 240° |
| 2026-04-20 21:23 | 47.34656 | 7.73518 | 34274 ft | 404 kts | 240° |
| 2026-04-20 21:23 | 47.33002 | 7.70176 | 34663 ft | 404 kts | 240° |
| 2026-04-20 21:23 | 47.31371 | 7.66878 | 34983 ft | 404 kts | 240° |
| 2026-04-20 21:24 | 47.29711 | 7.63528 | 35280 ft | 405 kts | 239° |
| 2026-04-20 21:24 | 47.28044 | 7.60173 | 35576 ft | 406 kts | 239° |
| 2026-04-20 21:24 | 47.26374 | 7.56819 | 35843 ft | 407 kts | 239° |
| 2026-04-20 21:24 | 47.24698 | 7.53459 | 36155 ft | 407 kts | 239° |
| 2026-04-20 21:25 | 47.23023 | 7.50102 | 36435 ft | 407 kts | 239° |
| 2026-04-20 21:25 | 47.21345 | 7.46742 | 36643 ft | 409 kts | 239° |
| 2026-04-20 21:25 | 47.19680 | 7.43415 | 36912 ft | 408 kts | 239° |
| 2026-04-20 21:25 | 47.17996 | 7.40055 | 37057 ft | 409 kts | 239° |
| 2026-04-20 21:26 | 47.16303 | 7.36682 | 37083 ft | 411 kts | 238° |
| 2026-04-20 21:26 | 47.12798 | 7.30042 | 37081 ft | 412 kts | 237° |
| 2026-04-20 21:27 | 47.09194 | 7.23508 | 37083 ft | 412 kts | 236° |
| 2026-04-20 21:27 | 47.05597 | 7.16979 | 37072 ft | 411 kts | 237° |
| 2026-04-20 21:28 | 47.02050 | 7.10480 | 37073 ft | 411 kts | 237° |
| 2026-04-20 21:28 | 46.98474 | 7.03935 | 37072 ft | 411 kts | 237° |
| 2026-04-20 21:29 | 46.94892 | 6.97404 | 37076 ft | 411 kts | 237° |
| 2026-04-20 21:29 | 46.91252 | 6.90941 | 37074 ft | 415 kts | 231° |
| 2026-04-20 21:30 | 46.86855 | 6.85454 | 37071 ft | 420 kts | 225° |
| 2026-04-20 21:30 | 46.82321 | 6.80077 | 37077 ft | 420 kts | 225° |
| 2026-04-20 21:31 | 46.77782 | 6.74696 | 37085 ft | 420 kts | 225° |
| 2026-04-20 21:31 | 46.73246 | 6.69313 | 37101 ft | 420 kts | 225° |
| 2026-04-20 21:32 | 46.68746 | 6.63968 | 37098 ft | 420 kts | 225° |
| 2026-04-20 21:32 | 46.64213 | 6.58605 | 37085 ft | 420 kts | 225° |
| 2026-04-20 21:33 | 46.59675 | 6.53258 | 37086 ft | 420 kts | 225° |
| 2026-04-20 21:33 | 46.55136 | 6.47921 | 37085 ft | 420 kts | 225° |
| 2026-04-20 21:34 | 46.50622 | 6.42629 | 37081 ft | 420 kts | 225° |
| 2026-04-20 21:34 | 46.46073 | 6.37304 | 37083 ft | 420 kts | 225° |
| 2026-04-20 21:35 | 46.41525 | 6.31986 | 37083 ft | 420 kts | 225° |
| 2026-04-20 21:35 | 46.36975 | 6.26679 | 37082 ft | 420 kts | 225° |
| 2026-04-20 21:36 | 46.32420 | 6.21383 | 37078 ft | 419 kts | 225° |
| 2026-04-20 21:36 | 46.27862 | 6.16197 | 37075 ft | 422 kts | 220° |
| 2026-04-20 21:37 | 46.22431 | 6.12645 | 37074 ft | 439 kts | 200° |
| 2026-04-20 21:37 | 46.16341 | 6.11195 | 37069 ft | 444 kts | 195° |
| 2026-04-20 21:38 | 46.10224 | 6.09861 | 37067 ft | 445 kts | 195° |
| 2026-04-20 21:38 | 46.04153 | 6.08517 | 37064 ft | 445 kts | 195° |
| 2026-04-20 21:39 | 45.98043 | 6.07154 | 37057 ft | 444 kts | 195° |
| 2026-04-20 21:39 | 45.91930 | 6.05802 | 37051 ft | 444 kts | 195° |
| 2026-04-20 21:40 | 45.85817 | 6.04454 | 37047 ft | 445 kts | 195° |
| 2026-04-20 21:40 | 45.79744 | 6.03125 | 37047 ft | 445 kts | 195° |
| 2026-04-20 21:41 | 45.73632 | 6.01769 | 37038 ft | 444 kts | 195° |
| 2026-04-20 21:41 | 45.67525 | 6.00410 | 37034 ft | 444 kts | 195° |
| 2026-04-20 21:42 | 45.61418 | 5.99069 | 37033 ft | 444 kts | 195° |
| 2026-04-20 21:42 | 45.55351 | 5.97738 | 37038 ft | 444 kts | 195° |
| 2026-04-20 21:43 | 45.49233 | 5.96406 | 37037 ft | 444 kts | 195° |
| 2026-04-20 21:43 | 45.43172 | 5.94853 | 37032 ft | 441 kts | 199° |
| 2026-04-20 21:44 | 45.37201 | 5.92908 | 37041 ft | 440 kts | 200° |
| 2026-04-20 21:44 | 45.31283 | 5.90931 | 37033 ft | 440 kts | 200° |
| 2026-04-20 21:45 | 45.25303 | 5.89024 | 37041 ft | 441 kts | 199° |
| 2026-04-20 21:45 | 45.19301 | 5.87191 | 37040 ft | 441 kts | 199° |
| 2026-04-20 21:46 | 45.13303 | 5.85357 | 37036 ft | 441 kts | 199° |
| 2026-04-20 21:46 | 45.07350 | 5.83522 | 37030 ft | 440 kts | 199° |
| 2026-04-20 21:47 | 45.01366 | 5.81674 | 37034 ft | 440 kts | 199° |
| 2026-04-20 21:47 | 44.95375 | 5.79831 | 37030 ft | 440 kts | 199° |
| 2026-04-20 21:48 | 44.89483 | 5.77678 | 37032 ft | 430 kts | 210° |
| 2026-04-20 21:48 | 44.84048 | 5.74234 | 37034 ft | 429 kts | 211° |
| 2026-04-20 21:49 | 44.78655 | 5.70780 | 37029 ft | 429 kts | 211° |
| 2026-04-20 21:49 | 44.73225 | 5.67303 | 37026 ft | 429 kts | 211° |
| 2026-04-20 21:50 | 44.67790 | 5.63835 | 37026 ft | 429 kts | 211° |
| 2026-04-20 21:50 | 44.62352 | 5.60375 | 37022 ft | 429 kts | 211° |
| 2026-04-20 21:51 | 44.56946 | 5.56946 | 37019 ft | 429 kts | 211° |
| 2026-04-20 21:51 | 44.51515 | 5.53505 | 37015 ft | 428 kts | 211° |
| 2026-04-20 21:52 | 44.46077 | 5.50075 | 37012 ft | 429 kts | 211° |
| 2026-04-20 21:52 | 44.40640 | 5.46650 | 37008 ft | 428 kts | 211° |
| 2026-04-20 21:53 | 44.35245 | 5.43250 | 37004 ft | 428 kts | 211° |
| 2026-04-20 21:53 | 44.29808 | 5.39840 | 37001 ft | 428 kts | 211° |
| 2026-04-20 21:54 | 44.24364 | 5.36437 | 37000 ft | 428 kts | 211° |
| 2026-04-20 21:54 | 44.18920 | 5.33034 | 36999 ft | 428 kts | 211° |
| 2026-04-20 21:55 | 44.13517 | 5.29658 | 36996 ft | 429 kts | 211° |
| 2026-04-20 21:55 | 44.08076 | 5.26270 | 36995 ft | 429 kts | 211° |
| 2026-04-20 21:56 | 44.02625 | 5.22889 | 36994 ft | 429 kts | 211° |
| 2026-04-20 21:56 | 43.97178 | 5.19513 | 36992 ft | 429 kts | 211° |
| 2026-04-20 21:57 | 43.91736 | 5.16140 | 36994 ft | 428 kts | 211° |
| 2026-04-20 21:57 | 43.86337 | 5.12795 | 36991 ft | 428 kts | 210° |
| 2026-04-20 21:58 | 43.80894 | 5.09439 | 36992 ft | 428 kts | 210° |
| 2026-04-20 21:58 | 43.75458 | 5.06095 | 36988 ft | 427 kts | 210° |
| 2026-04-20 21:59 | 43.70057 | 5.02786 | 36988 ft | 428 kts | 210° |
| 2026-04-20 21:59 | 43.64613 | 4.99455 | 36989 ft | 428 kts | 210° |
| 2026-04-20 22:00 | 43.59165 | 4.96124 | 36989 ft | 428 kts | 210° |
| 2026-04-20 22:00 | 43.53719 | 4.92795 | 36983 ft | 428 kts | 210° |
| 2026-04-20 22:01 | 43.48312 | 4.89498 | 36974 ft | 427 kts | 210° |
| 2026-04-20 22:01 | 43.42880 | 4.86190 | 36967 ft | 427 kts | 210° |
| 2026-04-20 22:02 | 43.37444 | 4.82897 | 36962 ft | 427 kts | 210° |
| 2026-04-20 22:02 | 43.32008 | 4.79613 | 36963 ft | 427 kts | 210° |
| 2026-04-20 22:03 | 43.26607 | 4.76351 | 36964 ft | 427 kts | 210° |
| 2026-04-20 22:03 | 43.21161 | 4.73064 | 36965 ft | 427 kts | 210° |
| 2026-04-20 22:04 | 43.15718 | 4.69774 | 36966 ft | 428 kts | 210° |
| 2026-04-20 22:04 | 43.10270 | 4.66495 | 36966 ft | 428 kts | 210° |
| 2026-04-20 22:05 | 43.04852 | 4.63248 | 36968 ft | 428 kts | 210° |
| 2026-04-20 22:05 | 42.99396 | 4.59990 | 36968 ft | 428 kts | 209° |
| 2026-04-20 22:06 | 42.93929 | 4.56733 | 36963 ft | 429 kts | 210° |
| 2026-04-20 22:06 | 42.88464 | 4.53473 | 36969 ft | 428 kts | 209° |
| 2026-04-20 22:07 | 42.83043 | 4.50240 | 36971 ft | 428 kts | 209° |
| 2026-04-20 22:07 | 42.77584 | 4.47003 | 36974 ft | 428 kts | 209° |
| 2026-04-20 22:08 | 42.72124 | 4.43765 | 36973 ft | 428 kts | 209° |
| 2026-04-20 22:08 | 42.66666 | 4.40527 | 36977 ft | 428 kts | 209° |
| 2026-04-20 22:09 | 42.61244 | 4.37319 | 36977 ft | 428 kts | 209° |
| 2026-04-20 22:09 | 42.55776 | 4.34096 | 36978 ft | 429 kts | 209° |
| 2026-04-20 22:10 | 42.50299 | 4.30877 | 36980 ft | 429 kts | 209° |
| 2026-04-20 22:10 | 42.44818 | 4.27662 | 36990 ft | 429 kts | 208° |
| 2026-04-20 22:11 | 42.39373 | 4.24479 | 36992 ft | 429 kts | 208° |
| 2026-04-20 22:11 | 42.33892 | 4.21274 | 36993 ft | 429 kts | 208° |
| 2026-04-20 22:12 | 42.28431 | 4.18083 | 36988 ft | 427 kts | 208° |
| 2026-04-20 22:12 | 42.22972 | 4.14898 | 36984 ft | 427 kts | 208° |
| 2026-04-20 22:13 | 42.17547 | 4.11740 | 36978 ft | 426 kts | 211° |
| 2026-04-20 22:13 | 42.12349 | 4.07980 | 36976 ft | 424 kts | 214° |
| 2026-04-20 22:14 | 42.07176 | 4.04181 | 36979 ft | 423 kts | 213° |
| 2026-04-20 22:14 | 42.01998 | 4.00389 | 36980 ft | 424 kts | 214° |
| 2026-04-20 22:15 | 41.96856 | 3.96621 | 36978 ft | 424 kts | 213° |
| 2026-04-20 22:15 | 41.91477 | 3.93311 | 36977 ft | 432 kts | 201° |
| 2026-04-20 22:16 | 41.85530 | 3.91786 | 36982 ft | 437 kts | 195° |
| 2026-04-20 22:16 | 41.79539 | 3.90423 | 36983 ft | 437 kts | 195° |
| 2026-04-20 22:17 | 41.73595 | 3.89042 | 36986 ft | 437 kts | 195° |
| 2026-04-20 22:17 | 41.67606 | 3.87652 | 36989 ft | 437 kts | 195° |
| 2026-04-20 22:18 | 41.61615 | 3.86276 | 36991 ft | 437 kts | 195° |
| 2026-04-20 22:18 | 41.55621 | 3.84909 | 36992 ft | 437 kts | 195° |
| 2026-04-20 22:19 | 41.49629 | 3.83528 | 36998 ft | 437 kts | 195° |
| 2026-04-20 22:19 | 41.43676 | 3.82156 | 37002 ft | 437 kts | 195° |
| 2026-04-20 22:20 | 41.37691 | 3.80787 | 37004 ft | 436 kts | 195° |
| 2026-04-20 22:20 | 41.31705 | 3.79425 | 37003 ft | 436 kts | 195° |
| 2026-04-20 22:21 | 41.25758 | 3.78078 | 37002 ft | 436 kts | 195° |
| 2026-04-20 22:21 | 41.19775 | 3.76721 | 37002 ft | 436 kts | 195° |
| 2026-04-20 22:22 | 41.13887 | 3.74975 | 37000 ft | 429 kts | 206° |
| 2026-04-20 22:22 | 41.08337 | 3.72096 | 37003 ft | 428 kts | 206° |
| 2026-04-20 22:23 | 41.02816 | 3.69256 | 36893 ft | 429 kts | 206° |
| 2026-04-20 22:23 | 41.00013 | 3.67817 | 36088 ft | 435 kts | 206° |
| 2026-04-20 22:23 | 40.97187 | 3.66366 | 35374 ft | 436 kts | 206° |
| 2026-04-20 22:23 | 40.94356 | 3.64911 | 34622 ft | 438 kts | 206° |
| 2026-04-20 22:24 | 40.91505 | 3.63448 | 33836 ft | 440 kts | 206° |
| 2026-04-20 22:24 | 40.88638 | 3.61975 | 32954 ft | 444 kts | 206° |
| 2026-04-20 22:24 | 40.85771 | 3.60505 | 32477 ft | 439 kts | 206° |
| 2026-04-20 22:24 | 40.82968 | 3.59070 | 31927 ft | 436 kts | 206° |
| 2026-04-20 22:25 | 40.80149 | 3.57633 | 31379 ft | 433 kts | 206° |
| 2026-04-20 22:25 | 40.77346 | 3.56204 | 30834 ft | 430 kts | 206° |
| 2026-04-20 22:25 | 40.74568 | 3.54785 | 30290 ft | 427 kts | 206° |
| 2026-04-20 22:25 | 40.71806 | 3.53379 | 29743 ft | 423 kts | 206° |
| 2026-04-20 22:26 | 40.69064 | 3.51991 | 29198 ft | 421 kts | 206° |
| 2026-04-20 22:26 | 40.66334 | 3.50606 | 28675 ft | 418 kts | 205° |
| 2026-04-20 22:26 | 40.63632 | 3.49235 | 28140 ft | 415 kts | 206° |
| 2026-04-20 22:27 | 40.58319 | 3.46529 | 27117 ft | 409 kts | 205° |
| 2026-04-20 22:27 | 40.55673 | 3.45180 | 26616 ft | 407 kts | 205° |
| 2026-04-20 22:27 | 40.53041 | 3.43841 | 26115 ft | 405 kts | 205° |
| 2026-04-20 22:27 | 40.50423 | 3.42519 | 25631 ft | 402 kts | 205° |
| 2026-04-20 22:28 | 40.47818 | 3.41203 | 25158 ft | 400 kts | 205° |
| 2026-04-20 22:28 | 40.45189 | 3.40011 | 24682 ft | 401 kts | 198° |
| 2026-04-20 22:28 | 40.42430 | 3.39435 | 24209 ft | 404 kts | 186° |
| 2026-04-20 22:28 | 40.39619 | 3.39494 | 23737 ft | 404 kts | 180° |
| 2026-04-20 22:29 | 40.36849 | 3.39661 | 23261 ft | 403 kts | 180° |
| 2026-04-20 22:29 | 40.34052 | 3.39826 | 22774 ft | 402 kts | 181° |
| 2026-04-20 22:29 | 40.31265 | 3.39984 | 22287 ft | 400 kts | 181° |
| 2026-04-20 22:29 | 40.28485 | 3.40140 | 21785 ft | 399 kts | 180° |
| 2026-04-20 22:30 | 40.25713 | 3.40295 | 21281 ft | 398 kts | 181° |
| 2026-04-20 22:30 | 40.22955 | 3.40451 | 20763 ft | 396 kts | 181° |
| 2026-04-20 22:30 | 40.20205 | 3.40607 | 20243 ft | 394 kts | 181° |
| 2026-04-20 22:30 | 40.17475 | 3.40761 | 19702 ft | 388 kts | 181° |
| 2026-04-20 22:31 | 40.14869 | 3.40912 | 19199 ft | 372 kts | 181° |
| 2026-04-20 22:31 | 40.12313 | 3.41061 | 18701 ft | 366 kts | 181° |
| 2026-04-20 22:31 | 40.09773 | 3.41207 | 18197 ft | 365 kts | 181° |
| 2026-04-20 22:31 | 40.07263 | 3.41348 | 17950 ft | 355 kts | 181° |
| 2026-04-20 22:32 | 40.04834 | 3.41483 | 17819 ft | 343 kts | 181° |
| 2026-04-20 22:32 | 40.02477 | 3.41616 | 17577 ft | 336 kts | 181° |
| 2026-04-20 22:32 | 40.00148 | 3.41745 | 17150 ft | 335 kts | 181° |
| 2026-04-20 22:32 | 39.97841 | 3.41873 | 16682 ft | 327 kts | 181° |
| 2026-04-20 22:33 | 39.95626 | 3.41674 | 15883 ft | 322 kts | 199° |
| 2026-04-20 22:33 | 39.93622 | 3.40549 | 15239 ft | 310 kts | 217° |
| 2026-04-20 22:33 | 39.92041 | 3.38717 | 14554 ft | 302 kts | 230° |
| 2026-04-20 22:33 | 39.90618 | 3.36709 | 13822 ft | 301 kts | 230° |
| 2026-04-20 22:34 | 39.89211 | 3.34706 | 13129 ft | 298 kts | 230° |
| 2026-04-20 22:34 | 39.87815 | 3.32715 | 12434 ft | 297 kts | 230° |
| 2026-04-20 22:34 | 39.86429 | 3.30741 | 11757 ft | 294 kts | 229° |
| 2026-04-20 22:34 | 39.85046 | 3.28782 | 10999 ft | 295 kts | 229° |
| 2026-04-20 22:35 | 39.83656 | 3.26817 | 10214 ft | 296 kts | 229° |
| 2026-04-20 22:35 | 39.83204 | 3.26178 | 9958 ft | 296 kts | 229° |
| 2026-04-20 22:36 | 39.76201 | 3.16280 | 7511 ft | 250 kts | 228° |
| 2026-04-20 22:36 | 39.75041 | 3.14645 | 7177 ft | 242 kts | 228° |
| 2026-04-20 22:37 | 39.73920 | 3.13072 | 6864 ft | 233 kts | 227° |
| 2026-04-20 22:37 | 39.72843 | 3.11557 | 6541 ft | 224 kts | 228° |
| 2026-04-20 22:37 | 39.72151 | 3.10583 | 6335 ft | 220 kts | 227° |
| 2026-04-20 22:37 | 39.71118 | 3.09129 | 6031 ft | 218 kts | 228° |
| 2026-04-20 22:38 | 39.70147 | 3.07613 | 5718 ft | 218 kts | 239° |
| 2026-04-20 22:38 | 39.69369 | 3.05922 | 5414 ft | 218 kts | 239° |
| 2026-04-20 22:38 | 39.68353 | 3.03676 | 5010 ft | 218 kts | 239° |